createdAt,value
2022-09-01T00:02:19.600Z,13.23
2022-09-01T00:06:39.184Z,11.55
2022-09-01T00:10:43.183Z,15.57
2022-09-01T00:14:52.029Z,14.45
2022-09-01T00:18:57.542Z,14.77
2022-09-01T00:23:02.658Z,12.55
2022-09-01T00:27:06.735Z,10.27
2022-09-01T00:31:15.277Z,19.50
2022-09-01T00:35:21.610Z,13.23
2022-09-01T00:39:25.891Z,10.82
2022-09-01T00:43:48.060Z,12.45
2022-09-01T00:47:55.942Z,18.33
2022-09-01T00:52:11.155Z,15.02
2022-09-01T00:56:19.892Z,13.63
2022-09-01T01:00:30.772Z,15.90
2022-09-01T01:04:36.589Z,15.00
2022-09-01T01:08:47.453Z,13.63
2022-09-01T01:12:51.823Z,15.35
2022-09-01T01:16:55.574Z,17.23
2022-09-01T01:21:22.679Z,7.50
2022-09-01T01:25:27.928Z,14.25
2022-09-01T01:29:34.307Z,11.45
2022-09-01T01:33:42.710Z,13.93
2022-09-01T01:37:49.048Z,11.85
2022-09-01T01:41:55.176Z,12.30
2022-09-01T01:46:02.965Z,13.02
2022-09-01T01:50:09.571Z,21.30
2022-09-01T01:54:12.921Z,16.08
2022-09-01T01:58:20.143Z,12.27
2022-09-01T02:02:23.574Z,10.85
2022-09-01T02:06:30.407Z,8.07
2022-09-01T02:10:36.729Z,11.13
2022-09-01T02:14:42.050Z,9.15
2022-09-01T02:18:48.863Z,8.27
2022-09-01T02:23:11.755Z,7.15
2022-09-01T02:27:15.910Z,10.25
2022-09-01T02:31:21.145Z,10.35
2022-09-01T02:35:29.059Z,8.57
2022-09-01T02:39:35.212Z,11.10
2022-09-01T02:43:40.131Z,10.02
2022-09-01T02:47:46.896Z,12.93
2022-09-01T02:51:54.297Z,10.73
2022-09-01T02:56:00.100Z,10.07
2022-09-01T03:00:05.324Z,11.35
2022-09-01T03:04:10.928Z,9.77
2022-09-01T03:08:16.541Z,8.00
2022-09-01T03:12:20.478Z,17.60
2022-09-01T03:16:23.746Z,8.18
2022-09-01T03:20:30.224Z,10.00
2022-09-01T03:24:33.424Z,14.23
2022-09-01T03:28:37.932Z,10.90
2022-09-01T03:32:41.287Z,11.30
2022-09-01T03:36:50.681Z,13.32
2022-09-01T03:40:59.144Z,8.38
2022-09-01T03:45:09.504Z,10.25
2022-09-01T03:49:15.722Z,11.85
2022-09-01T03:53:23.077Z,10.75
2022-09-01T03:57:26.893Z,14.25
2022-09-01T04:01:44.053Z,8.57
2022-09-01T04:05:48.250Z,5.60
2022-09-01T04:09:53.093Z,6.68
2022-09-01T04:13:56.361Z,25.02
2022-09-01T04:18:20.364Z,4.93
2022-09-01T04:22:29.497Z,13.23
2022-09-01T04:26:34.155Z,9.55
2022-09-01T04:30:40.947Z,22.88
2022-09-01T04:34:48.454Z,7.10
2022-09-01T04:38:55.103Z,16.38
2022-09-01T04:42:59.652Z,10.85
2022-09-01T04:47:02.616Z,9.10
2022-09-01T04:51:10.731Z,6.55
2022-09-01T04:55:18.018Z,8.82
2022-09-01T04:59:24.707Z,9.43
2022-09-01T05:03:32.053Z,6.70
2022-09-01T05:07:36.048Z,6.90
2022-09-01T05:11:40.453Z,8.48
2022-09-01T05:15:47.306Z,9.65
2022-09-01T05:19:51.277Z,7.30
2022-09-01T05:23:54.530Z,7.10
2022-09-01T05:27:58.092Z,9.93
2022-09-01T05:32:09.075Z,9.40
2022-09-01T05:36:12.996Z,10.25
2022-09-01T05:40:16.732Z,10.82
2022-09-01T05:44:22.712Z,11.35
2022-09-01T05:48:28.791Z,49.92
2022-09-01T05:52:35.010Z,11.38
2022-09-01T05:56:43.688Z,8.68
2022-09-01T06:00:49.396Z,11.77
2022-09-01T06:04:57.387Z,9.02
2022-09-01T06:09:02.731Z,10.50
2022-09-01T06:17:31.960Z,8.88
2022-09-01T06:26:06.907Z,8.27
2022-09-01T06:30:15.573Z,13.88
2022-09-01T06:34:19.823Z,18.75
2022-09-01T06:38:25.805Z,19.92
2022-09-01T06:42:29.416Z,24.70
2022-09-01T06:46:33.656Z,18.65
2022-09-01T06:55:07.711Z,24.02
2022-09-01T06:59:12.977Z,13.63
2022-09-01T07:03:18.705Z,11.60
2022-09-01T07:21:02.689Z,12.73
2022-09-01T07:25:11.695Z,13.98
2022-09-01T07:29:18.127Z,8.43
2022-09-01T07:38:48.433Z,13.40
2022-09-01T07:46:41.398Z,12.25
2022-09-01T07:55:12.605Z,11.98
2022-09-01T07:59:16.584Z,5.32
2022-09-01T08:03:25.393Z,5.88
2022-09-01T08:07:29.082Z,8.90
2022-09-01T08:11:58.587Z,5.30
2022-09-01T08:20:20.967Z,4.78
2022-09-01T08:24:24.474Z,4.18
2022-09-01T08:28:28.525Z,5.78
2022-09-01T08:32:32.764Z,5.97
2022-09-01T08:36:38.266Z,5.70
2022-09-01T08:40:43.813Z,6.68
2022-09-01T08:44:56.490Z,5.13
2022-09-01T08:53:33.259Z,3.40
2022-09-01T08:57:39.051Z,2.83
2022-09-01T09:01:48.734Z,2.20
2022-09-01T09:06:05.464Z,1.80
2022-09-01T09:10:16.600Z,1.85
2022-09-01T09:14:34.789Z,4.32
2022-09-01T09:18:59.814Z,3.33
2022-09-01T09:23:13.906Z,4.50
2022-09-01T09:27:26.891Z,3.45
2022-09-01T09:31:33.765Z,3.20
2022-09-01T09:35:40.839Z,2.17
2022-09-01T09:39:45.609Z,3.22
2022-09-01T09:43:59.337Z,4.32
2022-09-01T09:48:08.039Z,2.55
2022-09-01T09:52:18.587Z,1.70
2022-09-01T09:56:25.826Z,2.10
2022-09-01T10:00:35.438Z,2.15
2022-09-01T10:04:39.941Z,2.65
2022-09-01T10:08:49.954Z,2.25
2022-09-01T14:29:19.920Z,1.23
2022-09-01T14:33:24.562Z,3.00
2022-09-01T14:37:30.216Z,1.08
2022-09-01T14:41:34.424Z,1.42
2022-09-01T14:45:38.453Z,1.77
2022-09-01T14:49:43.757Z,0.90
2022-09-01T14:53:50.413Z,4.20
2022-09-01T14:57:55.992Z,1.23
2022-09-01T15:02:00.769Z,1.42
2022-09-01T15:06:05.275Z,3.08
2022-09-01T15:10:15.808Z,0.82
2022-09-01T15:14:20.708Z,2.13
2022-09-01T15:18:24.160Z,1.70
2022-09-01T15:22:29.460Z,1.95
2022-09-01T15:26:35.731Z,1.40
2022-09-01T15:30:41.599Z,2.35
2022-09-01T15:34:44.908Z,2.42
2022-09-01T15:38:49.856Z,3.88
2022-09-01T15:42:55.704Z,1.75
2022-09-01T15:46:58.985Z,1.73
2022-09-01T15:51:30.825Z,0.77
2022-09-01T15:55:43.270Z,1.05
2022-09-01T15:59:49.626Z,1.15
2022-09-01T16:03:54.841Z,3.42
2022-09-01T16:07:59.966Z,1.38
2022-09-01T16:12:03.628Z,2.55
2022-09-01T16:16:24.946Z,0.60
2022-09-01T16:20:39.980Z,1.38
2022-09-01T16:24:46.374Z,3.30
2022-09-01T16:28:54.011Z,1.15
2022-09-01T16:33:03.690Z,2.03
2022-09-01T16:37:13.193Z,1.95
2022-09-01T16:41:30.307Z,1.00
2022-09-01T16:45:46.844Z,2.53
2022-09-01T16:50:05.253Z,1.05
2022-09-01T16:54:21.911Z,2.47
2022-09-01T16:58:32.747Z,2.08
2022-09-01T17:02:43.761Z,0.80
2022-09-01T17:07:00.227Z,2.45
2022-09-01T17:11:11.110Z,1.02
2022-09-01T17:15:18.584Z,1.20
2022-09-01T17:19:24.510Z,2.00
2022-09-01T17:23:35.900Z,1.60
2022-09-01T17:27:52.097Z,1.05
2022-09-01T17:32:04.657Z,4.20
2022-09-01T17:36:24.283Z,1.58
2022-09-01T17:40:43.174Z,2.08
2022-09-01T17:44:56.561Z,1.30
2022-09-01T17:49:11.331Z,3.25
2022-09-01T17:53:27.923Z,2.05
2022-09-01T17:57:43.666Z,1.95
2022-09-01T18:02:04.197Z,1.00
2022-09-01T18:06:12.746Z,2.50
2022-09-01T18:10:21.211Z,1.25
2022-09-01T18:14:37.101Z,1.08
2022-09-01T18:18:43.098Z,1.52
2022-09-01T18:26:58.038Z,2.55
2022-09-01T18:31:24.464Z,1.48
2022-09-01T18:35:37.033Z,2.10
2022-09-01T18:39:52.476Z,1.70
2022-09-01T18:44:05.654Z,1.35
2022-09-01T18:48:22.040Z,1.42
2022-09-01T18:52:44.031Z,3.60
2022-09-01T18:56:54.626Z,1.27
2022-09-01T19:01:06.184Z,1.23
2022-09-01T19:05:22.903Z,3.10
2022-09-01T19:09:31.828Z,3.35
2022-09-01T19:13:48.119Z,1.10
2022-09-01T19:18:16.198Z,1.65
2022-09-01T19:22:25.138Z,3.28
2022-09-01T19:26:35.650Z,1.33
2022-09-01T19:30:44.788Z,1.48
2022-09-01T19:34:54.068Z,1.63
2022-09-01T19:38:59.616Z,2.60
2022-09-01T19:43:08.904Z,1.77
2022-09-01T19:47:17.528Z,2.60
2022-09-01T19:51:27.254Z,5.35
2022-09-01T19:55:41.240Z,2.35
2022-09-01T19:59:55.293Z,2.42
2022-09-01T20:04:06.259Z,1.90
2022-09-01T20:08:20.211Z,2.20
2022-09-01T20:20:44.483Z,2.45
2022-09-01T20:24:48.895Z,4.00
2022-09-01T20:33:17.365Z,3.00
2022-09-01T20:37:23.997Z,1.90
2022-09-01T20:41:39.337Z,3.30
2022-09-01T20:45:43.364Z,1.27
2022-09-01T20:49:47.886Z,2.03
2022-09-01T20:54:06.498Z,3.50
2022-09-01T20:58:17.137Z,3.80
2022-09-01T21:02:34.904Z,2.38
2022-09-01T21:06:54.624Z,2.35
2022-09-01T21:11:18.708Z,2.30
2022-09-01T21:15:37.646Z,4.93
2022-09-01T21:19:49.482Z,2.17
2022-09-01T21:23:54.024Z,2.72
2022-09-01T21:28:00.129Z,2.20
2022-09-01T21:32:04.225Z,2.58
2022-09-01T21:36:08.146Z,1.75
2022-09-01T21:40:14.366Z,2.40
2022-09-01T21:44:17.915Z,3.65
2022-09-01T21:48:21.173Z,2.60
2022-09-01T21:52:24.335Z,2.00
2022-09-01T21:56:29.056Z,2.53
2022-09-01T22:00:35.072Z,2.78
2022-09-01T22:04:39.227Z,2.30
2022-09-01T22:08:42.554Z,7.47
2022-09-01T22:12:49.941Z,4.57
2022-09-01T22:16:53.324Z,1.85
2022-09-01T22:21:03.198Z,11.38
2022-09-01T22:25:07.533Z,4.15
2022-09-01T22:29:12.172Z,2.28
2022-09-01T22:33:15.943Z,3.83
2022-09-01T22:37:19.856Z,4.43
2022-09-01T22:41:25.650Z,7.30
2022-09-01T22:45:30.195Z,3.80
2022-09-01T22:49:33.875Z,9.35
2022-09-01T22:53:37.862Z,2.28
2022-09-01T22:57:41.240Z,3.85
2022-09-01T23:01:48.000Z,4.25
2022-09-01T23:05:52.316Z,3.70
2022-09-01T23:09:56.123Z,3.35
2022-09-01T23:13:59.542Z,13.90
2022-09-01T23:18:04.345Z,2.65
2022-09-01T23:22:07.887Z,2.65
2022-09-01T23:26:13.549Z,2.88
2022-09-01T23:30:16.893Z,2.25
2022-09-01T23:34:22.416Z,1.67
2022-09-01T23:38:27.647Z,1.42
2022-09-01T23:42:31.321Z,1.15
2022-09-01T23:46:40.572Z,2.58
2022-09-01T23:50:46.306Z,2.95
2022-09-01T23:54:49.978Z,3.17
2022-09-01T23:58:53.864Z,1.55
